createdAt,value
2022-10-17T00:01:55.349Z,98915.86
2022-10-17T00:04:22.678Z,98917.76
2022-10-17T00:06:49.797Z,98922.91
2022-10-17T00:09:16.953Z,98916.70
2022-10-17T00:11:44.347Z,98916.44
2022-10-17T00:14:11.524Z,98919.95
2022-10-17T00:16:39.002Z,98919.44
2022-10-17T00:19:06.853Z,98920.79
2022-10-17T00:21:34.163Z,98925.39
2022-10-17T00:24:01.435Z,98922.72
2022-10-17T00:26:31.564Z,98923.27
2022-10-17T00:28:58.752Z,98921.66
2022-10-17T00:31:25.836Z,98921.66
2022-10-17T00:33:53.113Z,98922.73
2022-10-17T00:36:22.778Z,98924.91
2022-10-17T00:38:53.244Z,98931.12
2022-10-17T00:41:23.818Z,98925.97
2022-10-17T00:44:03.481Z,98925.97
2022-10-17T00:46:35.637Z,98931.12
2022-10-17T00:49:08.359Z,98917.61
2022-10-17T00:51:44.885Z,98923.82
2022-10-17T00:54:14.479Z,98928.67
2022-10-17T00:56:41.660Z,98918.96
2022-10-17T00:59:11.204Z,98922.47
2022-10-17T01:01:41.260Z,98914.36
2022-10-17T01:04:09.635Z,98918.42
2022-10-17T01:06:38.658Z,98923.56
2022-10-17T01:09:05.700Z,98921.67
2022-10-17T01:11:45.399Z,98923.31
2022-10-17T01:14:22.271Z,98930.35
2022-10-17T01:16:55.849Z,98930.89
2022-10-17T01:19:57.750Z,98934.69
2022-10-17T01:22:38.337Z,98935.23
2022-10-17T01:25:28.104Z,98936.07
2022-10-17T01:28:07.036Z,98934.46
2022-10-17T01:31:00.013Z,98930.98
2022-10-17T01:33:50.739Z,98934.77
2022-10-17T01:36:34.152Z,98943.42
2022-10-17T01:39:20.604Z,98945.05
2022-10-17T01:41:59.321Z,98948.03
2022-10-17T01:44:44.668Z,98948.06
2022-10-17T01:47:16.041Z,98951.30
2022-10-17T01:49:49.549Z,98956.41
2022-10-17T01:52:23.269Z,98956.41
2022-10-17T01:55:00.391Z,98958.58
2022-10-17T01:57:33.841Z,98961.00
2022-10-17T02:00:03.636Z,98960.71
2022-10-17T02:02:33.136Z,98962.58
2022-10-17T02:05:02.481Z,98969.88
2022-10-17T02:07:30.284Z,98962.04
2022-10-17T02:09:57.830Z,98967.70
2022-10-17T02:12:45.719Z,98976.34
2022-10-17T02:15:29.102Z,98975.80
2022-10-17T02:18:09.398Z,98980.68
2022-10-17T02:20:57.132Z,98978.00
2022-10-17T02:23:48.435Z,98972.33
2022-10-17T02:26:34.000Z,98975.34
2022-10-17T02:29:07.361Z,98972.10
2022-10-17T02:31:40.190Z,98978.28
2022-10-17T02:34:23.886Z,98976.69
2022-10-17T02:36:53.965Z,98977.50
2022-10-17T02:39:23.338Z,98977.52
2022-10-17T02:41:52.173Z,98980.47
2022-10-17T02:44:20.383Z,98990.99
2022-10-17T02:46:52.212Z,98989.91
2022-10-17T02:49:28.440Z,98989.91
2022-10-17T02:52:05.062Z,98982.65
2022-10-17T02:54:36.957Z,98986.13
2022-10-17T02:57:23.288Z,98989.66
2022-10-17T02:59:51.416Z,98987.75
2022-10-17T03:02:18.585Z,98991.02
2022-10-17T03:04:46.800Z,98992.34
2022-10-17T03:07:14.082Z,98994.50
2022-10-17T03:09:41.325Z,98996.66
2022-10-17T03:12:08.590Z,99001.51
2022-10-17T03:14:36.168Z,98997.47
2022-10-17T03:17:03.629Z,98992.89
2022-10-17T03:19:31.854Z,98993.69
2022-10-17T03:22:03.430Z,99005.28
2022-10-17T03:24:32.087Z,99003.41
2022-10-17T03:27:02.211Z,98998.53
2022-10-17T03:29:31.743Z,99001.78
2022-10-17T03:32:04.383Z,99002.84
2022-10-17T03:34:32.436Z,99002.31
2022-10-17T03:36:59.568Z,99003.66
2022-10-17T03:39:27.176Z,99008.25
2022-10-17T03:41:54.243Z,99009.05
2022-10-17T03:44:21.561Z,99007.97
2022-10-17T03:46:49.185Z,99006.36
2022-10-17T03:49:16.546Z,99016.33
2022-10-17T03:51:44.998Z,99017.95
2022-10-17T03:54:14.152Z,99018.23
2022-10-17T03:56:41.492Z,99012.58
2022-10-17T03:59:13.218Z,99022.83
2022-10-17T04:01:41.110Z,99020.94
2022-10-17T04:04:08.877Z,99016.34
2022-10-17T04:06:37.432Z,99018.52
2022-10-17T04:09:05.619Z,99021.21
2022-10-17T04:11:34.663Z,99028.75
2022-10-17T04:14:02.073Z,99020.66
2022-10-17T04:16:29.578Z,99018.78
2022-10-17T04:18:59.705Z,99022.00
2022-10-17T04:21:29.333Z,99027.38
2022-10-17T04:23:58.461Z,99024.70
2022-10-17T04:26:30.734Z,99024.16
2022-10-17T04:28:57.860Z,99022.80
2022-10-17T04:31:24.955Z,99027.37
2022-10-17T04:33:59.756Z,99032.23
2022-10-17T04:36:27.677Z,99034.37
2022-10-17T04:38:55.132Z,99034.63
2022-10-17T04:41:22.292Z,99037.89
2022-10-17T04:43:51.140Z,99036.27
2022-10-17T04:46:19.070Z,99045.44
2022-10-17T04:48:46.523Z,99037.08
2022-10-17T04:51:15.611Z,99041.41
2022-10-17T04:53:53.413Z,99038.71
2022-10-17T04:56:22.605Z,99041.42
2022-10-17T04:58:50.503Z,99036.87
2022-10-17T05:01:19.832Z,99035.52
2022-10-17T05:03:49.138Z,99036.86
2022-10-17T05:06:20.689Z,99040.66
2022-10-17T05:08:49.829Z,99039.02
2022-10-17T05:11:22.364Z,99048.47
2022-10-17T05:13:51.315Z,99055.47
2022-10-17T05:16:19.490Z,99061.69
2022-10-17T05:18:54.662Z,99064.13
2022-10-17T05:21:23.930Z,99070.33
2022-10-17T05:23:53.312Z,99077.89
2022-10-17T05:26:21.434Z,99080.87
2022-10-17T05:28:48.711Z,99079.50
2022-10-17T05:31:16.915Z,99076.80
2022-10-17T05:33:44.193Z,99081.66
2022-10-17T05:36:11.788Z,99083.81
2022-10-17T05:38:39.644Z,99096.28
2022-10-17T05:41:07.549Z,99093.58
2022-10-17T05:43:34.941Z,99103.84
2022-10-17T05:46:05.972Z,99098.17
2022-10-17T05:48:33.887Z,99105.95
2022-10-17T05:51:04.833Z,99102.44
2022-10-17T05:53:34.782Z,99108.69
2022-10-17T05:56:07.335Z,99112.47
2022-10-17T05:58:53.260Z,99120.83
2022-10-17T06:01:08.238Z,99121.11
2022-10-17T06:03:35.368Z,99128.11
2022-10-17T06:06:10.239Z,99124.61
2022-10-17T06:08:39.716Z,99129.48
2022-10-17T06:11:10.263Z,99130.02
2022-10-17T06:13:39.433Z,99128.38
2022-10-17T06:16:08.855Z,99134.32
2022-10-17T06:18:36.118Z,99127.80
2022-10-17T06:21:05.416Z,99140.75
2022-10-17T06:23:33.349Z,99131.82
2022-10-17T06:26:03.935Z,99133.96
2022-10-17T06:28:31.815Z,99143.93
2022-10-17T06:30:58.996Z,99140.37
2022-10-17T06:33:26.985Z,99141.41
2022-10-17T06:35:55.412Z,99139.45
2022-10-17T06:38:24.024Z,99146.69
2022-10-17T06:40:54.901Z,99144.45
2022-10-17T06:43:27.018Z,99141.38
2022-10-17T06:48:33.791Z,99136.90
2022-10-17T06:51:15.046Z,99138.66
2022-10-17T06:53:49.825Z,99142.30
2022-10-17T06:56:28.486Z,99140.86
2022-10-17T06:59:15.095Z,99145.05
2022-10-17T07:01:46.261Z,99148.42
2022-10-17T07:04:13.374Z,99147.75
2022-10-17T07:06:40.517Z,99144.87
2022-10-17T07:09:09.956Z,99141.75
2022-10-17T07:11:38.244Z,99154.33
2022-10-17T07:14:05.693Z,99153.39
2022-10-17T07:16:33.985Z,99142.36
2022-10-17T07:19:03.111Z,99147.03
2022-10-17T07:21:35.307Z,99149.81
2022-10-17T07:24:02.146Z,99145.52
2022-10-17T07:26:29.364Z,99153.63
2022-10-17T07:28:56.598Z,99150.66
2022-10-17T07:31:34.812Z,99147.94
2022-10-17T07:34:02.227Z,99150.15
2022-10-17T07:36:30.382Z,99146.98
2022-10-17T07:38:59.252Z,99146.56
2022-10-17T07:41:27.313Z,99153.89
2022-10-17T07:43:55.485Z,99150.75
2022-10-17T07:46:24.648Z,99139.92
2022-10-17T07:48:51.873Z,99148.08
2022-10-17T07:51:21.447Z,99146.17
2022-10-17T07:53:49.035Z,99142.02
2022-10-17T07:56:16.637Z,99142.30
2022-10-17T07:58:43.745Z,99141.30
2022-10-17T08:01:15.188Z,99143.81
2022-10-17T08:03:43.912Z,99144.62
2022-10-17T08:06:11.197Z,99144.02
2022-10-17T08:08:38.510Z,99147.59
2022-10-17T08:11:08.282Z,99150.14
2022-10-17T08:13:36.296Z,99144.84
2022-10-17T08:16:08.352Z,99143.36
2022-10-17T08:18:36.222Z,99154.53
2022-10-17T08:21:07.933Z,99154.45
2022-10-17T08:23:36.030Z,99153.33
2022-10-17T08:26:05.973Z,99152.22
2022-10-17T08:28:35.403Z,99152.38
2022-10-17T08:31:10.552Z,99152.38
2022-10-17T08:33:38.049Z,99150.81
2022-10-17T08:36:06.070Z,99153.46
2022-10-17T08:38:39.391Z,99151.14
2022-10-17T08:41:13.285Z,99158.23
2022-10-17T08:44:10.123Z,99153.30
2022-10-17T08:46:39.662Z,99152.03
2022-10-17T08:49:13.436Z,99158.88
2022-10-17T08:51:44.520Z,99153.31
2022-10-17T08:54:18.253Z,99152.10
2022-10-17T08:56:50.997Z,99154.86
2022-10-17T08:59:21.378Z,99150.15
2022-10-17T09:01:58.392Z,99159.12
2022-10-17T09:04:47.086Z,99155.66
2022-10-17T09:07:33.204Z,99156.46
2022-10-17T09:10:24.951Z,99158.26
2022-10-17T09:13:22.022Z,99160.98
2022-10-17T09:16:08.366Z,99159.11
2022-10-17T09:18:38.673Z,99160.48
2022-10-17T09:21:44.801Z,99164.38
2022-10-17T09:24:16.106Z,99161.70
2022-10-17T09:26:45.524Z,99157.31
2022-10-17T09:29:18.809Z,99160.02
2022-10-17T09:31:58.825Z,99159.31
2022-10-17T09:34:28.119Z,99159.05
2022-10-17T09:36:59.162Z,99157.34
2022-10-17T09:39:28.537Z,99158.71
2022-10-17T09:41:58.489Z,99153.99
2022-10-17T09:44:33.912Z,99144.91
2022-10-17T09:47:23.358Z,99145.64
2022-10-17T09:49:51.408Z,99147.66
2022-10-17T09:52:28.444Z,99145.84
2022-10-17T09:55:17.672Z,99148.63
2022-10-17T09:57:54.345Z,99139.37
2022-10-17T10:00:27.424Z,99141.94
2022-10-17T10:03:22.925Z,99137.22
2022-10-17T10:06:08.843Z,99139.22
2022-10-17T10:08:39.617Z,99138.75
2022-10-17T10:11:13.377Z,99133.77
2022-10-17T10:13:37.448Z,99135.63
2022-10-17T10:16:17.158Z,99129.84
2022-10-17T10:18:46.398Z,99128.30
2022-10-17T10:21:19.726Z,99127.97
2022-10-17T10:24:12.149Z,99121.72
2022-10-17T10:26:44.890Z,99115.23
2022-10-17T10:29:29.558Z,99118.07
2022-10-17T10:32:00.534Z,99110.84
2022-10-17T10:34:29.028Z,99109.53
2022-10-17T10:37:04.534Z,99115.33
2022-10-17T10:39:37.687Z,99117.75
2022-10-17T10:42:08.073Z,99111.30
2022-10-17T10:44:37.278Z,99115.63
2022-10-17T10:47:23.115Z,99111.23
2022-10-17T10:49:52.323Z,99106.30
2022-10-17T10:52:23.201Z,99110.22
2022-10-17T10:55:20.060Z,99109.34
2022-10-17T10:57:47.992Z,99102.41
2022-10-17T11:00:21.169Z,99107.33
2022-10-17T11:03:12.587Z,99097.38
2022-10-17T11:05:42.992Z,99103.05
2022-10-17T11:08:16.740Z,99101.25
2022-10-17T11:10:50.487Z,99094.20
2022-10-17T11:13:21.480Z,99102.35
2022-10-17T11:15:55.096Z,99097.72
2022-10-17T11:18:25.325Z,99085.97
2022-10-17T11:20:58.209Z,99081.99
2022-10-17T11:23:34.896Z,99075.94
2022-10-17T11:26:05.384Z,99074.79
2022-10-17T11:28:32.858Z,99079.39
2022-10-17T11:31:07.105Z,99081.55
2022-10-17T11:33:56.056Z,99074.79
2022-10-17T11:36:29.758Z,99077.08
2022-10-17T11:39:00.372Z,99072.48
2022-10-17T11:41:31.134Z,99079.82
2022-10-17T11:44:16.945Z,99070.36
2022-10-17T11:46:46.038Z,99069.56
2022-10-17T11:49:23.560Z,99068.19
2022-10-17T11:52:18.307Z,99062.94
2022-10-17T11:54:45.564Z,99068.07
2022-10-17T11:57:44.136Z,99063.64
2022-10-17T12:00:32.516Z,99061.83
2022-10-17T12:03:06.140Z,99056.58
2022-10-17T12:05:45.506Z,99061.88
2022-10-17T12:08:16.366Z,99056.14
2022-10-17T12:10:59.527Z,99055.69
2022-10-17T12:13:33.208Z,99057.06
2022-10-17T12:16:23.108Z,99053.17
2022-10-17T12:18:53.913Z,99054.77
2022-10-17T12:21:20.995Z,99054.32
2022-10-17T12:23:53.137Z,99050.47
2022-10-17T12:26:30.228Z,99055.51
2022-10-17T12:28:57.637Z,99055.98
2022-10-17T12:31:33.354Z,99051.59
2022-10-17T12:33:57.746Z,99053.08
2022-10-17T12:36:31.374Z,99052.30
2022-10-17T12:39:07.772Z,99056.21
2022-10-17T12:41:43.754Z,99057.03
2022-10-17T12:44:21.144Z,99059.09
2022-10-17T12:46:58.056Z,99057.50
2022-10-17T12:49:41.255Z,99058.87
2022-10-17T12:52:23.405Z,99051.88
2022-10-17T12:55:12.133Z,99054.03
2022-10-17T12:57:56.248Z,99049.70
2022-10-17T13:00:59.589Z,99047.13
2022-10-17T13:03:16.310Z,99043.02
2022-10-17T13:05:47.171Z,99046.77
2022-10-17T13:08:18.312Z,99040.84
2022-10-17T13:10:50.266Z,99044.28
2022-10-17T13:13:20.169Z,99039.72
2022-10-17T13:15:52.813Z,99040.63
2022-10-17T13:18:23.069Z,99035.02
2022-10-17T13:21:05.978Z,99043.05
2022-10-17T13:23:35.856Z,99044.42
2022-10-17T13:26:19.830Z,99048.32
2022-10-17T13:29:02.475Z,99039.74
2022-10-17T13:31:33.354Z,99048.09
2022-10-17T13:34:03.390Z,99049.72
2022-10-17T13:36:31.429Z,99045.81
2022-10-17T13:39:00.398Z,99041.34
2022-10-17T13:41:37.199Z,99043.95
2022-10-17T13:43:58.857Z,99036.17
2022-10-17T13:46:38.071Z,99037.77
2022-10-17T13:49:04.763Z,99033.20
2022-10-17T13:51:31.820Z,99034.58
2022-10-17T13:53:59.084Z,99030.20
2022-10-17T13:56:28.953Z,99030.20
2022-10-17T13:59:04.016Z,99030.67
2022-10-17T14:01:31.471Z,99031.11
2022-10-17T14:04:08.758Z,99024.70
2022-10-17T14:06:29.534Z,99028.80
2022-10-17T14:08:59.663Z,99025.58
2022-10-17T14:11:36.344Z,99025.10
2022-10-17T14:14:06.284Z,99015.91
2022-10-17T14:16:38.895Z,99020.45
2022-10-17T14:19:09.860Z,99019.87
2022-10-17T14:21:44.165Z,99022.95
2022-10-17T14:24:25.215Z,99027.88
2022-10-17T14:26:55.152Z,99020.42
2022-10-17T14:29:25.246Z,99030.14
2022-10-17T14:32:04.523Z,99022.00
2022-10-17T14:34:37.090Z,99029.66
2022-10-17T14:37:33.774Z,99029.39
2022-10-17T14:40:03.398Z,99029.89
2022-10-17T14:42:30.489Z,99030.32
2022-10-17T14:45:01.460Z,99030.20
2022-10-17T14:47:43.280Z,99027.67
2022-10-17T14:50:13.536Z,99021.48
2022-10-17T14:52:42.567Z,99014.16
2022-10-17T14:55:25.012Z,99012.83
2022-10-17T14:57:52.411Z,99020.88
2022-10-17T15:00:20.814Z,99015.65
2022-10-17T15:02:49.034Z,99022.24
2022-10-17T15:05:16.941Z,99018.95
2022-10-17T15:07:44.173Z,99017.26
2022-10-17T15:10:30.048Z,99019.92
2022-10-17T15:13:15.827Z,99020.39
2022-10-17T15:15:29.586Z,99020.29
2022-10-17T15:17:56.765Z,99023.05
2022-10-17T15:20:27.348Z,99025.65
2022-10-17T15:22:55.209Z,99020.38
2022-10-17T15:25:23.161Z,99024.88
2022-10-17T15:27:50.969Z,99023.89
2022-10-17T15:30:23.748Z,99021.53
2022-10-17T15:32:51.342Z,99022.09
2022-10-17T15:35:19.575Z,99032.05
2022-10-17T15:37:46.643Z,99036.25
2022-10-17T15:40:23.119Z,99032.70
2022-10-17T15:42:50.369Z,99036.69
2022-10-17T15:45:19.277Z,99038.15
2022-10-17T15:47:56.046Z,99038.19
2022-10-17T15:50:23.209Z,99040.50
2022-10-17T15:52:50.640Z,99036.83
2022-10-17T15:55:18.336Z,99044.76
2022-10-17T15:57:46.389Z,99047.98
2022-10-17T16:00:23.278Z,99046.52
2022-10-17T16:02:50.817Z,99052.45
2022-10-17T16:05:24.936Z,99055.41
2022-10-17T16:07:52.948Z,99054.97
2022-10-17T16:10:21.191Z,99058.88
2022-10-17T16:12:49.523Z,99066.00
2022-10-17T16:15:23.271Z,99064.67
2022-10-17T16:17:51.802Z,99069.86
2022-10-17T16:20:19.552Z,99076.14
2022-10-17T16:22:47.825Z,99079.13
2022-10-17T16:25:26.053Z,99076.92
2022-10-17T16:27:55.215Z,99078.56
2022-10-17T16:30:24.352Z,99076.17
2022-10-17T16:32:52.303Z,99086.27
2022-10-17T16:35:23.215Z,99091.92
2022-10-17T16:37:50.721Z,99090.27
2022-10-17T16:40:18.253Z,99094.52
2022-10-17T16:42:45.473Z,99093.89
2022-10-17T16:45:19.155Z,99093.02
2022-10-17T16:47:46.815Z,99095.59
2022-10-17T16:50:14.460Z,99103.38
2022-10-17T16:52:41.677Z,99099.41
2022-10-17T16:55:09.694Z,99108.18
2022-10-17T16:57:37.164Z,99105.81
2022-10-17T17:00:06.047Z,99103.45
2022-10-17T17:02:33.856Z,99106.81
2022-10-17T17:05:01.349Z,99111.25
2022-10-17T17:07:29.476Z,99109.69
2022-10-17T17:09:57.313Z,99116.05
2022-10-17T17:12:24.462Z,99119.97
2022-10-17T17:14:51.375Z,99117.35
2022-10-17T17:17:30.250Z,99117.46
2022-10-17T17:19:48.108Z,99121.27
2022-10-17T17:22:15.096Z,99119.42
2022-10-17T17:24:42.463Z,99120.53
2022-10-17T17:27:12.717Z,99122.81
2022-10-17T17:29:38.656Z,99123.69
2022-10-17T17:32:05.924Z,99127.03
2022-10-17T17:34:35.762Z,99128.98
2022-10-17T17:37:03.133Z,99120.27
2022-10-17T17:39:30.120Z,99123.86
2022-10-17T17:41:57.436Z,99127.38
2022-10-17T17:44:24.668Z,99126.83
2022-10-17T17:46:51.799Z,99124.66
2022-10-17T17:49:18.986Z,99124.31
2022-10-17T17:51:46.266Z,99125.67
2022-10-17T17:54:14.129Z,99133.55
2022-10-17T17:56:41.625Z,99122.43
2022-10-17T17:59:10.729Z,99126.68
2022-10-17T18:01:38.541Z,99132.86
2022-10-17T18:04:08.043Z,99124.52
2022-10-17T18:06:36.289Z,99126.16
2022-10-17T18:09:04.042Z,99125.70
2022-10-17T18:11:31.354Z,99122.25
2022-10-17T18:14:01.222Z,99123.44
2022-10-17T18:16:30.004Z,99120.61
2022-10-17T18:19:02.603Z,99122.63
2022-10-17T18:21:27.340Z,99125.69
2022-10-17T18:23:54.269Z,99129.50
2022-10-17T18:26:21.292Z,99127.39
2022-10-17T18:28:49.722Z,99129.09
2022-10-17T18:31:20.704Z,99135.68
2022-10-17T18:33:53.313Z,99126.78
2022-10-17T18:36:21.277Z,99132.87
2022-10-17T18:38:49.661Z,99137.04
2022-10-17T18:41:19.573Z,99136.58
2022-10-17T18:43:47.973Z,99135.27
2022-10-17T18:46:22.010Z,99134.25
2022-10-17T18:48:49.883Z,99135.42
2022-10-17T18:51:19.557Z,99129.80
2022-10-17T18:53:49.438Z,99131.19
2022-10-17T18:56:17.363Z,99133.16
2022-10-17T18:58:44.963Z,99132.37
2022-10-17T19:01:15.915Z,99132.13
2022-10-17T19:03:45.022Z,99129.41
2022-10-17T19:06:14.315Z,99127.25
2022-10-17T19:08:42.597Z,99132.94
2022-10-17T19:11:15.304Z,99132.46
2022-10-17T19:13:43.064Z,99139.84
2022-10-17T19:16:13.720Z,99139.61
2022-10-17T19:18:41.053Z,99136.67
2022-10-17T19:21:10.390Z,99135.89
2022-10-17T19:23:38.178Z,99131.87
2022-10-17T19:26:07.109Z,99137.39
2022-10-17T19:28:35.513Z,99140.95
2022-10-17T19:31:03.160Z,99142.64
2022-10-17T19:33:31.254Z,99140.00
2022-10-17T19:36:01.304Z,99141.94
2022-10-17T19:38:28.669Z,99142.79
2022-10-17T19:40:56.250Z,99146.33
2022-10-17T19:43:23.321Z,99145.27
2022-10-17T19:45:55.977Z,99144.77
2022-10-17T19:48:23.956Z,99147.19
2022-10-17T19:50:52.411Z,99151.01
2022-10-17T19:53:22.017Z,99153.72
2022-10-17T19:55:49.877Z,99151.56
2022-10-17T19:58:16.961Z,99155.33
2022-10-17T20:00:49.944Z,99149.90
2022-10-17T20:03:18.034Z,99142.86
2022-10-17T20:05:45.713Z,99146.38
2022-10-17T20:08:14.231Z,99147.73
2022-10-17T20:10:41.984Z,99146.13
2022-10-17T20:13:09.728Z,99147.73
2022-10-17T20:15:37.218Z,99145.83
2022-10-17T20:18:05.942Z,99143.34
2022-10-17T20:20:36.734Z,99148.47
2022-10-17T20:23:04.377Z,99149.83
2022-10-17T20:25:33.242Z,99152.04
2022-10-17T20:28:00.503Z,99151.80
2022-10-17T20:30:27.851Z,99153.80
2022-10-17T20:32:55.593Z,99155.80
2022-10-17T20:35:22.859Z,99154.52
2022-10-17T20:37:49.864Z,99154.05
2022-10-17T20:40:34.106Z,99153.58
2022-10-17T20:42:46.299Z,99152.28
2022-10-17T20:45:14.365Z,99148.84
2022-10-17T20:47:47.157Z,99147.30
2022-10-17T20:50:10.545Z,99150.05
2022-10-17T20:52:37.752Z,99149.54
2022-10-17T20:55:05.521Z,99149.31
2022-10-17T20:57:32.834Z,99151.53
2022-10-17T21:00:00.454Z,99152.39
2022-10-17T21:02:27.811Z,99147.82
2022-10-17T21:04:55.011Z,99148.38
2022-10-17T21:07:24.100Z,99143.78
2022-10-17T21:09:51.306Z,99149.51
2022-10-17T21:12:26.217Z,99154.98
2022-10-17T21:14:47.286Z,99153.68
2022-10-17T21:17:14.429Z,99153.18
2022-10-17T21:19:41.791Z,99155.39
2022-10-17T21:22:08.898Z,99155.16
2022-10-17T21:24:36.065Z,99153.86
2022-10-17T21:27:03.556Z,99148.20
2022-10-17T21:29:30.617Z,99155.55
2022-10-17T21:31:57.683Z,99149.89
2022-10-17T21:34:25.060Z,99147.45
2022-10-17T21:36:52.628Z,99151.25
2022-10-17T21:39:21.147Z,99148.59
2022-10-17T21:41:48.295Z,99146.44
2022-10-17T21:44:17.851Z,99152.15
2022-10-17T21:46:45.587Z,99146.52
2022-10-17T21:49:15.411Z,99148.17
2022-10-17T21:51:44.052Z,99150.59
2022-10-17T21:54:13.709Z,99145.48
2022-10-17T21:56:41.431Z,99148.48
2022-10-17T21:59:08.788Z,99146.33
2022-10-17T22:01:41.905Z,99138.50
2022-10-17T22:04:15.177Z,99139.59
2022-10-17T22:06:44.865Z,99140.98
2022-10-17T22:09:15.731Z,99139.08
2022-10-17T22:11:46.099Z,99137.19
2022-10-17T22:14:15.489Z,99136.93
2022-10-17T22:16:44.722Z,99140.19
2022-10-17T22:19:13.358Z,99136.67
2022-10-17T22:21:40.955Z,99133.16
2022-10-17T22:24:10.846Z,99133.93
2022-10-17T22:26:38.163Z,99124.97
2022-10-17T22:29:06.874Z,99131.73
2022-10-17T22:31:34.395Z,99131.95
2022-10-17T22:34:02.952Z,99136.24
2022-10-17T22:36:31.156Z,99133.45
2022-10-17T22:38:58.203Z,99125.02
2022-10-17T22:41:25.194Z,99130.59
2022-10-17T22:43:52.294Z,99133.23
2022-10-17T22:46:19.475Z,99133.17
2022-10-17T22:48:46.561Z,99133.41
2022-10-17T22:51:14.047Z,99137.42
2022-10-17T22:53:41.516Z,99136.58
2022-10-17T22:56:14.513Z,99131.13
2022-10-17T22:58:41.933Z,99131.69
2022-10-17T23:01:14.990Z,99126.84
2022-10-17T23:03:42.249Z,99127.14
2022-10-17T23:06:09.959Z,99131.25
2022-10-17T23:08:37.454Z,99133.22
2022-10-17T23:11:05.467Z,99128.12
2022-10-17T23:13:32.812Z,99127.61
2022-10-17T23:15:59.866Z,99123.60
2022-10-17T23:18:27.270Z,99124.97
2022-10-17T23:20:54.997Z,99116.88
2022-10-17T23:23:22.554Z,99118.00
2022-10-17T23:25:50.870Z,99118.05
2022-10-17T23:28:18.295Z,99116.73
2022-10-17T23:30:45.503Z,99117.81
2022-10-17T23:33:13.606Z,99116.25
2022-10-17T23:35:40.999Z,99116.84
2022-10-17T23:38:08.706Z,99112.53
2022-10-17T23:40:35.821Z,99117.44
2022-10-17T23:43:04.232Z,99109.61
2022-10-17T23:45:36.117Z,99110.67
2022-10-17T23:48:00.693Z,99103.36
2022-10-17T23:50:28.092Z,99107.16
2022-10-17T23:52:55.180Z,99105.55
2022-10-17T23:55:22.438Z,99107.45
2022-10-17T23:57:49.715Z,99102.08
